createdAt,value
2023-04-12T00:01:18.762Z,46.93
2023-04-12T00:03:51.313Z,46.58
2023-04-12T00:06:27.845Z,46.77
2023-04-12T00:09:04.399Z,46.92
2023-04-12T00:11:37.150Z,47.33
2023-04-12T00:14:09.232Z,47.36
2023-04-12T00:16:41.778Z,47.15
2023-04-12T00:19:13.869Z,47.21
2023-04-12T00:21:46.162Z,47.47
2023-04-12T00:24:19.667Z,47.62
2023-04-12T00:26:51.881Z,47.61
2023-04-12T00:29:25.261Z,47.60
2023-04-12T00:31:57.668Z,47.88
2023-04-12T00:34:30.014Z,47.89
2023-04-12T00:37:03.084Z,47.36
2023-04-12T00:39:35.172Z,47.64
2023-04-12T00:42:07.618Z,47.21
2023-04-12T00:44:39.718Z,47.38
2023-04-12T00:47:12.766Z,47.37
2023-04-12T00:49:44.758Z,47.04
2023-04-12T00:52:18.147Z,47.28
2023-04-12T00:54:51.995Z,47.04
2023-04-12T00:57:24.080Z,47.06
2023-04-12T00:59:56.166Z,46.55
2023-04-12T01:02:29.988Z,46.23
2023-04-12T01:05:03.110Z,46.72
2023-04-12T01:07:37.968Z,46.47
2023-04-12T01:10:45.285Z,46.61
2023-04-12T01:13:29.341Z,46.91
2023-04-12T01:16:12.734Z,46.99
2023-04-12T01:18:50.318Z,47.43
2023-04-12T01:21:28.075Z,47.86
2023-04-12T01:24:14.846Z,48.00
2023-04-12T01:26:49.526Z,47.81
2023-04-12T01:29:22.412Z,48.03
2023-04-12T01:31:57.221Z,47.21
2023-04-12T01:34:32.389Z,48.21
2023-04-12T01:37:04.924Z,48.38
2023-04-12T01:39:37.424Z,48.48
2023-04-12T01:42:09.461Z,48.66
2023-04-12T01:44:41.439Z,48.80
2023-04-12T01:47:14.080Z,48.89
2023-04-12T01:49:51.701Z,49.03
2023-04-12T01:52:26.725Z,49.12
2023-04-12T01:55:01.573Z,49.12
2023-04-12T01:57:37.462Z,49.36
2023-04-12T02:00:11.879Z,49.61
2023-04-12T02:02:46.971Z,49.68
2023-04-12T02:05:19.867Z,49.37
2023-04-12T02:07:52.628Z,49.66
2023-04-12T02:10:32.361Z,49.67
2023-04-12T02:13:04.684Z,50.35
2023-04-12T02:15:37.704Z,50.54
2023-04-12T02:18:09.860Z,50.93
2023-04-12T02:20:43.969Z,51.29
2023-04-12T02:23:16.234Z,51.46
2023-04-12T02:25:48.576Z,51.69
2023-04-12T02:28:22.820Z,51.86
2023-04-12T02:30:55.047Z,52.15
2023-04-12T02:33:28.530Z,52.12
2023-04-12T02:36:02.943Z,52.17
2023-04-12T02:38:34.972Z,52.29
2023-04-12T02:41:08.084Z,52.67
2023-04-12T02:43:40.317Z,52.49
2023-04-12T02:46:19.652Z,52.97
2023-04-12T02:48:55.500Z,52.55
2023-04-12T02:51:29.369Z,52.61
2023-04-12T02:54:01.487Z,53.20
2023-04-12T02:56:37.134Z,53.18
2023-04-12T02:59:10.831Z,52.93
2023-04-12T03:02:02.456Z,53.13
2023-04-12T03:04:38.025Z,52.93
2023-04-12T03:07:10.529Z,52.79
2023-04-12T03:09:44.738Z,52.84
2023-04-12T03:12:17.731Z,52.78
2023-04-12T03:15:03.412Z,52.89
2023-04-12T03:17:35.639Z,52.69
2023-04-12T03:20:12.031Z,52.70
2023-04-12T03:22:45.690Z,52.90
2023-04-12T03:25:20.707Z,52.86
2023-04-12T03:27:54.401Z,52.32
2023-04-12T03:30:28.370Z,52.35
2023-04-12T03:33:01.032Z,51.52
2023-04-12T03:35:33.575Z,51.15
2023-04-12T03:38:06.456Z,50.79
2023-04-12T03:40:38.999Z,50.39
2023-04-12T03:43:11.107Z,50.11
2023-04-12T03:45:44.078Z,50.14
2023-04-12T03:48:16.880Z,49.81
2023-04-12T03:50:49.226Z,49.07
2023-04-12T03:53:23.912Z,48.69
2023-04-12T03:55:56.590Z,48.28
2023-04-12T03:58:30.508Z,47.89
2023-04-12T04:01:06.943Z,47.38
2023-04-12T04:03:39.567Z,46.60
2023-04-12T04:06:13.870Z,46.11
2023-04-12T04:08:46.301Z,46.10
2023-04-12T04:11:18.880Z,45.49
2023-04-12T04:13:52.840Z,44.51
2023-04-12T04:16:25.057Z,44.51
2023-04-12T04:18:57.866Z,44.09
2023-04-12T04:21:31.478Z,43.68
2023-04-12T04:24:04.338Z,43.56
2023-04-12T04:26:38.501Z,44.03
2023-04-12T04:29:15.348Z,42.31
2023-04-12T04:31:47.776Z,41.87
2023-04-12T04:34:20.350Z,41.08
2023-04-12T04:36:53.938Z,40.65
2023-04-12T04:39:27.838Z,40.05
2023-04-12T04:42:00.951Z,39.96
2023-04-12T04:44:48.018Z,39.53
2023-04-12T04:47:20.341Z,39.23
2023-04-12T04:49:52.608Z,38.92
2023-04-12T04:52:26.816Z,38.69
2023-04-12T04:55:02.924Z,38.46
2023-04-12T04:57:37.229Z,38.29
2023-04-12T05:00:11.779Z,37.76
2023-04-12T05:02:46.138Z,37.72
2023-04-12T05:05:21.649Z,37.43
2023-04-12T05:07:55.349Z,37.07
2023-04-12T05:10:27.620Z,36.99
2023-04-12T05:13:00.494Z,37.15
2023-04-12T05:15:33.327Z,36.71
2023-04-12T05:18:05.870Z,36.46
2023-04-12T05:20:40.265Z,35.80
2023-04-12T05:23:13.416Z,35.52
2023-04-12T05:25:48.490Z,35.53
2023-04-12T05:28:21.538Z,35.13
2023-04-12T05:30:55.063Z,34.59
2023-04-12T05:33:30.236Z,34.54
2023-04-12T05:36:02.781Z,34.27
2023-04-12T05:38:35.670Z,33.54
2023-04-12T05:41:09.632Z,33.57
2023-04-12T05:43:42.072Z,33.39
2023-04-12T05:46:14.593Z,33.54
2023-04-12T05:48:48.216Z,33.07
2023-04-12T05:51:30.657Z,32.48
2023-04-12T05:53:55.109Z,32.56
2023-04-12T05:56:28.361Z,33.92
2023-04-12T05:59:02.859Z,32.66
2023-04-12T06:01:36.079Z,31.74
2023-04-12T06:04:08.739Z,29.63
2023-04-12T06:06:43.755Z,29.31
2023-04-12T06:09:17.501Z,29.07
2023-04-12T06:11:49.678Z,28.24
2023-04-12T06:14:21.981Z,28.24
2023-04-12T06:16:54.415Z,27.23
2023-04-12T06:19:27.532Z,26.41
2023-04-12T06:21:59.549Z,25.71
2023-04-12T06:24:31.865Z,25.50
2023-04-12T06:27:04.405Z,24.74
2023-04-12T06:29:36.642Z,24.83
2023-04-12T06:32:09.128Z,24.02
2023-04-12T06:34:41.990Z,23.30
2023-04-12T06:37:16.294Z,23.58
2023-04-12T06:39:49.169Z,23.62
2023-04-12T06:42:21.251Z,23.47
2023-04-12T06:44:53.545Z,23.20
2023-04-12T06:47:26.908Z,23.11
2023-04-12T06:49:59.116Z,21.85
2023-04-12T06:52:32.799Z,21.00
2023-04-12T06:55:04.957Z,19.72
2023-04-12T06:57:37.091Z,18.97
2023-04-12T07:00:09.916Z,17.84
2023-04-12T07:02:55.288Z,17.01
2023-04-12T07:05:27.622Z,16.57
2023-04-12T07:07:59.881Z,16.70
2023-04-12T07:10:33.097Z,16.62
2023-04-12T07:13:07.194Z,16.89
2023-04-12T07:15:39.425Z,17.18
2023-04-12T07:18:11.932Z,18.01
2023-04-12T07:20:44.227Z,18.55
2023-04-12T07:23:16.604Z,19.73
2023-04-12T07:25:49.033Z,20.95
2023-04-12T07:28:22.185Z,21.59
2023-04-12T07:30:54.283Z,21.94
2023-04-12T07:33:28.287Z,22.46
2023-04-12T07:36:01.152Z,22.96
2023-04-12T07:38:33.562Z,22.83
2023-04-12T07:41:05.644Z,23.26
2023-04-12T07:43:37.831Z,24.30
2023-04-12T07:46:10.082Z,25.88
2023-04-12T07:48:43.262Z,25.40
2023-04-12T07:51:15.476Z,25.28
2023-04-12T07:53:52.486Z,26.13
2023-04-12T07:56:25.087Z,25.82
2023-04-12T07:58:57.885Z,25.48
2023-04-12T08:01:30.728Z,24.90
2023-04-12T08:04:03.939Z,25.24
2023-04-12T08:06:37.772Z,25.27
2023-04-12T08:09:10.146Z,25.24
2023-04-12T08:11:42.541Z,25.20
2023-04-12T08:14:14.825Z,24.99
2023-04-12T08:16:47.039Z,25.15
2023-04-12T08:19:21.552Z,25.16
2023-04-12T08:21:54.596Z,25.83
2023-04-12T08:24:26.951Z,24.52
2023-04-12T08:26:59.821Z,23.95
2023-04-12T08:29:32.168Z,24.02
2023-04-12T08:32:05.492Z,24.24
2023-04-12T08:34:38.795Z,24.39
2023-04-12T08:37:11.170Z,24.15
2023-04-12T08:39:43.724Z,24.32
2023-04-12T08:42:17.043Z,24.14
2023-04-12T08:44:50.948Z,23.88
2023-04-12T08:47:23.954Z,25.28
2023-04-12T08:49:57.560Z,26.66
2023-04-12T08:52:29.923Z,24.65
2023-04-12T08:55:04.582Z,24.45
2023-04-12T08:57:42.292Z,24.25
2023-04-12T09:00:16.232Z,23.76
2023-04-12T09:02:49.288Z,23.69
2023-04-12T09:05:24.116Z,23.40
2023-04-12T09:07:57.909Z,23.51
2023-04-12T09:10:38.876Z,23.37
2023-04-12T09:13:12.309Z,24.97
2023-04-12T09:15:54.074Z,23.51
2023-04-12T09:18:27.716Z,24.06
2023-04-12T09:21:12.155Z,23.88
2023-04-12T09:23:44.704Z,23.45
2023-04-12T09:26:30.424Z,23.05
2023-04-12T09:29:03.749Z,22.55
2023-04-12T09:31:37.402Z,22.46
2023-04-12T09:34:14.615Z,22.37
2023-04-12T09:36:47.765Z,22.48
2023-04-12T09:39:20.360Z,21.95
2023-04-12T09:41:56.522Z,22.56
2023-04-12T09:44:32.066Z,22.02
2023-04-12T09:47:06.413Z,21.63
2023-04-12T09:49:41.074Z,22.01
2023-04-12T09:52:13.721Z,22.15
2023-04-12T09:54:49.802Z,23.04
2023-04-12T09:57:24.739Z,22.13
2023-04-12T10:00:00.045Z,23.04
2023-04-12T10:02:33.931Z,22.84
2023-04-12T10:05:07.488Z,22.35
2023-04-12T10:07:44.809Z,22.26
2023-04-12T10:10:19.103Z,21.91
2023-04-12T10:12:53.229Z,22.08
2023-04-12T10:15:26.626Z,21.87
2023-04-12T10:18:07.658Z,22.17
2023-04-12T10:20:42.335Z,22.17
2023-04-12T10:23:16.614Z,22.31
2023-04-12T10:25:50.110Z,22.45
2023-04-12T10:28:23.147Z,22.86
2023-04-12T10:31:00.447Z,22.18
2023-04-12T10:33:33.256Z,22.05
2023-04-12T10:36:11.619Z,22.21
2023-04-12T10:38:48.672Z,22.70
2023-04-12T10:41:25.792Z,22.46
2023-04-12T10:44:02.056Z,22.06
2023-04-12T10:46:43.418Z,21.90
2023-04-12T10:49:19.257Z,22.26
2023-04-12T10:52:12.389Z,21.99
2023-04-12T10:54:45.267Z,21.83
2023-04-12T10:57:43.911Z,21.46
2023-04-12T11:00:17.171Z,21.42
2023-04-12T11:03:10.880Z,21.37
2023-04-12T11:06:12.651Z,21.51
2023-04-12T11:08:57.198Z,21.66
2023-04-12T11:11:35.844Z,21.29
2023-04-12T11:14:11.009Z,20.69
2023-04-12T11:17:08.956Z,20.69
2023-04-12T11:19:46.685Z,20.72
2023-04-12T11:22:22.478Z,21.27
2023-04-12T11:24:57.488Z,21.61
2023-04-12T11:27:31.938Z,21.15
2023-04-12T11:30:04.012Z,20.82
2023-04-12T11:32:39.370Z,20.46
2023-04-12T11:35:11.774Z,20.09
2023-04-12T11:37:45.118Z,20.57
2023-04-12T11:40:17.591Z,20.81
2023-04-12T11:42:50.180Z,20.24
2023-04-12T11:45:22.390Z,20.44
2023-04-12T11:47:55.037Z,19.82
2023-04-12T11:50:32.466Z,19.73
2023-04-12T11:53:16.038Z,19.45
2023-04-12T11:55:52.184Z,18.96
2023-04-12T11:58:26.559Z,19.30
2023-04-12T12:01:00.067Z,19.19
2023-04-12T12:03:32.540Z,19.32
2023-04-12T12:06:06.168Z,19.46
2023-04-12T12:08:38.890Z,18.77
2023-04-12T12:11:11.131Z,19.00
2023-04-12T12:13:48.250Z,18.84
2023-04-12T12:16:22.145Z,18.69
2023-04-12T12:18:54.638Z,18.17
2023-04-12T12:21:27.904Z,17.49
2023-04-12T12:24:00.425Z,15.47
2023-04-12T12:26:33.193Z,14.26
2023-04-12T12:29:06.261Z,12.99
2023-04-12T12:34:14.485Z,11.39
2023-04-12T12:36:47.984Z,10.99
2023-04-12T12:39:20.206Z,10.57
2023-04-12T12:41:56.583Z,10.07
2023-04-12T12:44:29.248Z,9.72
2023-04-12T12:47:10.157Z,9.40
2023-04-12T12:49:36.321Z,8.94
2023-04-12T12:52:08.623Z,8.40
2023-04-12T12:54:41.769Z,7.81
2023-04-12T12:57:14.349Z,7.99
2023-04-12T12:59:46.732Z,7.36
2023-04-12T13:02:19.986Z,7.29
2023-04-12T13:04:52.371Z,6.97
2023-04-12T13:07:24.625Z,6.74
2023-04-12T13:09:57.057Z,6.61
2023-04-12T13:12:29.368Z,6.31
2023-04-12T13:15:13.397Z,6.29
2023-04-12T13:17:35.880Z,6.33
2023-04-12T13:20:09.862Z,6.13
2023-04-12T13:22:42.021Z,6.11
2023-04-12T13:25:14.279Z,5.83
2023-04-12T13:27:46.335Z,5.91
2023-04-12T13:30:21.664Z,5.71
2023-04-12T13:32:55.486Z,5.82
2023-04-12T13:35:27.916Z,6.04
2023-04-12T13:38:00.180Z,6.00
2023-04-12T13:40:32.528Z,6.37
2023-04-12T13:43:04.806Z,6.09
2023-04-12T13:45:37.284Z,6.10
2023-04-12T13:48:10.042Z,6.45
2023-04-12T13:50:42.795Z,6.34
2023-04-12T13:53:14.907Z,6.19
2023-04-12T13:55:48.644Z,6.46
2023-04-12T13:58:21.132Z,6.45
2023-04-12T14:00:54.508Z,6.12
2023-04-12T14:03:26.709Z,6.24
2023-04-12T14:05:58.904Z,6.23
2023-04-12T14:08:31.392Z,6.43
2023-04-12T14:11:04.668Z,6.54
2023-04-12T14:13:36.609Z,7.05
2023-04-12T14:16:09.613Z,7.38
2023-04-12T14:18:42.569Z,7.51
2023-04-12T14:21:14.698Z,7.76
2023-04-12T14:23:46.978Z,7.98
2023-04-12T14:26:19.368Z,7.95
2023-04-12T14:28:51.771Z,7.80
2023-04-12T14:31:24.769Z,7.98
2023-04-12T14:33:56.917Z,7.88
2023-04-12T14:36:29.560Z,8.40
2023-04-12T14:39:07.676Z,8.91
2023-04-12T14:41:39.268Z,9.33
2023-04-12T14:44:11.242Z,9.88
2023-04-12T14:46:43.325Z,10.25
2023-04-12T14:49:15.428Z,11.05
2023-04-12T14:51:47.744Z,11.81
2023-04-12T14:54:19.868Z,12.77
2023-04-12T14:56:55.546Z,13.65
2023-04-12T14:59:27.603Z,14.40
2023-04-12T15:02:00.050Z,15.22
2023-04-12T15:04:32.319Z,15.83
2023-04-12T15:07:04.942Z,16.40
2023-04-12T15:09:37.135Z,16.92
2023-04-12T15:12:09.524Z,17.08
2023-04-12T15:14:41.894Z,17.75
2023-04-12T15:17:14.859Z,17.93
2023-04-12T15:19:47.402Z,17.60
2023-04-12T15:22:19.368Z,17.80
2023-04-12T15:24:51.428Z,17.96
2023-04-12T15:27:23.655Z,18.40
2023-04-12T15:29:56.081Z,18.71
2023-04-12T15:32:34.993Z,19.19
2023-04-12T15:35:22.832Z,19.03
2023-04-12T15:37:41.335Z,19.56
2023-04-12T15:40:18.772Z,19.78
2023-04-12T15:42:51.692Z,19.92
2023-04-12T15:45:24.465Z,20.14
2023-04-12T15:47:56.807Z,20.55
2023-04-12T15:50:29.006Z,20.72
2023-04-12T15:53:01.543Z,21.35
2023-04-12T15:55:33.767Z,21.17
2023-04-12T15:58:06.505Z,21.62
2023-04-12T16:00:39.245Z,21.41
2023-04-12T16:03:12.986Z,21.59
2023-04-12T16:05:45.442Z,23.48
2023-04-12T16:08:17.778Z,22.09
2023-04-12T16:10:51.060Z,22.26
2023-04-12T16:13:23.297Z,22.65
2023-04-12T16:15:55.616Z,22.72
2023-04-12T16:18:29.538Z,22.75
2023-04-12T16:21:01.952Z,22.96
2023-04-12T16:23:34.276Z,23.18
2023-04-12T16:26:06.869Z,23.05
2023-04-12T16:28:41.542Z,23.87
2023-04-12T16:31:15.531Z,24.30
2023-04-12T16:33:51.341Z,23.70
2023-04-12T16:36:23.696Z,24.31
2023-04-12T16:38:57.853Z,24.76
2023-04-12T16:41:30.327Z,24.54
2023-04-12T16:44:03.494Z,25.37
2023-04-12T16:46:36.262Z,25.25
2023-04-12T16:49:09.264Z,25.23
2023-04-12T16:51:41.745Z,24.97
2023-04-12T16:54:13.835Z,25.76
2023-04-12T16:56:47.372Z,25.78
2023-04-12T16:59:20.003Z,25.59
2023-04-12T17:01:52.418Z,25.99
2023-04-12T17:04:24.786Z,26.00
2023-04-12T17:06:57.543Z,25.77
2023-04-12T17:09:30.005Z,26.21
2023-04-12T17:12:02.294Z,25.86
2023-04-12T17:14:34.772Z,26.47
2023-04-12T17:17:08.661Z,26.73
2023-04-12T17:19:41.110Z,27.04
2023-04-12T17:22:13.773Z,26.46
2023-04-12T17:24:46.501Z,26.88
2023-04-12T17:27:18.756Z,27.46
2023-04-12T17:29:50.714Z,27.46
2023-04-12T17:32:22.907Z,27.11
2023-04-12T17:34:57.731Z,26.68
2023-04-12T17:37:30.266Z,27.14
2023-04-12T17:40:04.726Z,26.99
2023-04-12T17:42:37.524Z,26.75
2023-04-12T17:45:12.660Z,26.96
2023-04-12T17:47:44.956Z,26.96
2023-04-12T17:50:17.295Z,27.11
2023-04-12T17:52:49.688Z,27.13
2023-04-12T17:55:23.498Z,27.46
2023-04-12T17:57:55.941Z,27.39
2023-04-12T18:00:28.095Z,27.89
2023-04-12T18:03:00.509Z,27.89
2023-04-12T18:05:33.076Z,27.58
2023-04-12T18:08:06.244Z,27.58
2023-04-12T18:10:38.537Z,27.33
2023-04-12T18:13:11.267Z,28.06
2023-04-12T18:15:43.720Z,28.23
2023-04-12T18:18:16.242Z,28.88
2023-04-12T18:20:48.469Z,28.47
2023-04-12T18:23:20.998Z,28.87
2023-04-12T18:25:53.369Z,28.43
2023-04-12T18:28:26.442Z,29.08
2023-04-12T18:30:58.860Z,28.40
2023-04-12T18:33:31.326Z,28.65
2023-04-12T18:36:05.173Z,28.85
2023-04-12T18:38:37.752Z,28.57
2023-04-12T18:41:17.735Z,28.83
2023-04-12T18:43:49.755Z,28.92
2023-04-12T18:46:22.013Z,28.92
2023-04-12T18:48:54.852Z,28.64
2023-04-12T18:51:27.161Z,28.64
2023-04-12T18:53:59.346Z,28.75
2023-04-12T18:56:31.729Z,28.75
2023-04-12T18:59:04.717Z,28.71
2023-04-12T19:01:37.055Z,29.19
2023-04-12T19:04:09.749Z,29.19
2023-04-12T19:06:42.010Z,28.91
2023-04-12T19:09:14.075Z,29.23
2023-04-12T19:11:46.458Z,28.92
2023-04-12T19:14:18.747Z,29.45
2023-04-12T19:16:51.670Z,29.37
2023-04-12T19:19:23.599Z,29.56
2023-04-12T19:21:55.465Z,29.00
2023-04-12T19:24:27.571Z,29.23
2023-04-12T19:26:59.962Z,29.31
2023-04-12T19:29:31.899Z,29.45
2023-04-12T19:32:05.737Z,29.44
2023-04-12T19:34:37.960Z,29.63
2023-04-12T19:37:10.148Z,29.59
2023-04-12T19:39:42.348Z,29.52
2023-04-12T19:42:15.956Z,29.62
2023-04-12T19:44:48.207Z,29.50
2023-04-12T19:47:20.604Z,29.91
2023-04-12T19:49:52.630Z,29.94
2023-04-12T19:52:24.689Z,30.45
2023-04-12T19:54:56.845Z,30.82
2023-04-12T19:57:28.940Z,30.77
2023-04-12T20:00:01.784Z,30.38
2023-04-12T20:02:35.927Z,30.57
2023-04-12T20:05:08.652Z,30.77
2023-04-12T20:07:40.705Z,30.90
2023-04-12T20:10:15.565Z,30.58
2023-04-12T20:12:47.725Z,30.71
2023-04-12T20:15:20.299Z,30.88
2023-04-12T20:17:52.919Z,31.33
2023-04-12T20:20:25.004Z,30.90
2023-04-12T20:22:58.978Z,31.30
2023-04-12T20:25:32.680Z,31.03
2023-04-12T20:28:04.919Z,31.08
2023-04-12T20:30:37.541Z,31.23
2023-04-12T20:33:09.924Z,31.33
2023-04-12T20:35:43.650Z,31.61
2023-04-12T20:38:15.661Z,31.60
2023-04-12T20:40:48.142Z,31.69
2023-04-12T20:43:20.406Z,32.15
2023-04-12T20:45:52.433Z,31.76
2023-04-12T20:48:25.019Z,32.06
2023-04-12T20:50:57.052Z,32.11
2023-04-12T20:53:30.303Z,32.60
2023-04-12T20:56:02.666Z,31.98
2023-04-12T20:58:35.868Z,32.62
2023-04-12T21:01:08.630Z,32.27
2023-04-12T21:03:41.340Z,32.35
2023-04-12T21:06:13.328Z,32.71
2023-04-12T21:08:47.554Z,32.95
2023-04-12T21:11:19.696Z,32.52
2023-04-12T21:13:52.549Z,32.68
2023-04-12T21:16:25.456Z,33.14
2023-04-12T21:18:59.487Z,32.85
2023-04-12T21:21:34.301Z,32.68
2023-04-12T21:24:07.348Z,32.81
2023-04-12T21:26:39.479Z,32.85
2023-04-12T21:29:11.820Z,32.83
2023-04-12T21:31:44.226Z,33.06
2023-04-12T21:34:18.269Z,33.24
2023-04-12T21:36:50.216Z,33.40
2023-04-12T21:39:22.415Z,33.53
2023-04-12T21:41:54.384Z,33.59
2023-04-12T21:44:27.381Z,33.66
2023-04-12T21:47:00.297Z,33.57
2023-04-12T21:49:33.753Z,33.91
2023-04-12T21:52:06.064Z,33.93
2023-04-12T21:54:38.507Z,34.13
2023-04-12T21:57:11.331Z,34.25
2023-04-12T21:59:44.194Z,34.50
2023-04-12T22:02:16.577Z,34.57
2023-04-12T22:04:48.825Z,34.92
2023-04-12T22:07:21.733Z,35.23
2023-04-12T22:09:54.488Z,35.18
2023-04-12T22:12:26.946Z,34.92
2023-04-12T22:15:00.006Z,35.14
2023-04-12T22:17:33.749Z,35.30
2023-04-12T22:20:07.814Z,35.43
2023-04-12T22:22:40.537Z,35.42
2023-04-12T22:25:14.348Z,35.14
2023-04-12T22:27:47.772Z,35.34
2023-04-12T22:30:20.478Z,35.33
2023-04-12T22:32:53.728Z,35.64
2023-04-12T22:35:26.090Z,35.41
2023-04-12T22:37:58.132Z,35.54
2023-04-12T22:40:30.227Z,35.47
2023-04-12T22:43:02.538Z,35.45
2023-04-12T22:45:36.000Z,35.60
2023-04-12T22:48:09.915Z,35.72
2023-04-12T22:50:42.899Z,35.90
2023-04-12T22:53:15.921Z,36.12
2023-04-12T22:55:48.752Z,36.10
2023-04-12T22:58:20.783Z,36.35
2023-04-12T23:00:53.049Z,36.39
2023-04-12T23:03:25.419Z,36.22
2023-04-12T23:05:57.568Z,36.48
2023-04-12T23:08:29.587Z,36.55
2023-04-12T23:11:04.892Z,36.67
2023-04-12T23:13:37.031Z,37.00
2023-04-12T23:16:09.741Z,36.98
2023-04-12T23:18:41.817Z,36.87
2023-04-12T23:21:13.868Z,37.06
2023-04-12T23:23:46.388Z,37.11
2023-04-12T23:26:18.359Z,37.45
2023-04-12T23:28:50.617Z,37.48
2023-04-12T23:31:22.798Z,37.42
2023-04-12T23:33:55.171Z,38.00
2023-04-12T23:36:27.192Z,37.84
2023-04-12T23:39:03.915Z,38.05
2023-04-12T23:41:36.251Z,38.19
2023-04-12T23:44:08.322Z,38.38
2023-04-12T23:46:40.551Z,38.50
2023-04-12T23:49:13.070Z,38.55
2023-04-12T23:51:45.285Z,38.79
2023-04-12T23:54:17.570Z,39.15
2023-04-12T23:56:49.861Z,39.26
2023-04-12T23:59:22.518Z,39.27
